Terminal Aerodrome Forecast
Issued by NWS Tulsa, OK

Home | Current Version | Previous Version | Text Only | Print | Product List | Glossary On
Versions: 1 2 3 4 5 6 7 8 9 10 11 12 13 14 15 16 17 18 19
000
FTUS44 KTSA 241300 AAA
TAFTUL
TAF AMD
KTUL 241356Z 2414/2512 17026G32KT P6SM VCTS BKN026 BKN035CB BKN100
     FM241600 20015G25KT P6SM VCTS BKN050CB
      TEMPO 2416/2419 5SM -TSRA BR BKN035CB
     FM242000 31015G27KT P6SM BKN050
     FM250000 33007KT P6SM SCT250
     FM250600 26003KT P6SM SKC=

USA.gov is the U.S. government's official web portal to all federal, state and local government web resources and services.